aviador You're here:

KCON Decoded Metar

CONCORD in NH, USA
Report Time2017-09-21 18:51:00
UTC Time2017-09-21 19:34:46
Flight Rules vfr VFR
Wind060° at 09 Gusting to 17 kt
W.Decomp.*RWY 12: 6.5 kt HW 6.3 kt LCW
RWY 35: 0.6 kt HW 9.0 kt RCW
W.Rank060° ranks 36
Current wind is above 060° avg. (5.0)
Visibility9999 m
Phenomena:N/A
Clouds:N/A
Expected CloudBase > 6,000 ft AGL from Temp-Dew spread
CeilingNone
Temp24°C (ISA +10)
Dew Point09°C (39% RH)
AAT20.6°C
QNH1018 hPa
Density Alt1,450 ft
Elevation338 ft
Report Wrong Elevation
Raw Report
METAR KCON 211851Z AUTO 06009G17KT 10SM CLR 24/09 A3006 RMK AO2 SLP177
T02440094=

Extra information for KCON:More info

Metar Taf Metar & Taf Last 4 Metars F.Rules Stats Wind Profile Meteogram Temp Stats Airport Information Weather charts Add Link Nearby VenuesMetar ALERT Operation Metar Decoded Social comments

AIRNAV info for KCON